createdAt,value
2022-09-11T00:00:18.550Z,993.06
2022-09-11T00:01:18.536Z,993.04
2022-09-11T00:02:18.548Z,993.10
2022-09-11T00:03:18.504Z,993.04
2022-09-11T00:04:18.490Z,993.03
2022-09-11T00:05:18.504Z,993.08
2022-09-11T00:06:28.969Z,993.04
2022-09-11T00:07:18.444Z,993.07
2022-09-11T00:08:18.434Z,993.08
2022-09-11T00:09:18.413Z,993.10
2022-09-11T00:10:18.400Z,993.10
2022-09-11T00:11:18.388Z,993.09
2022-09-11T00:12:18.370Z,993.12
2022-09-11T00:13:18.354Z,993.13
2022-09-11T00:14:18.339Z,993.08
2022-09-11T00:15:18.323Z,993.14
2022-09-11T00:16:18.320Z,993.16
2022-09-11T00:17:18.294Z,993.14
2022-09-11T00:18:18.280Z,993.14
2022-09-11T00:19:18.264Z,993.13
2022-09-11T00:20:18.253Z,993.15
2022-09-11T00:21:18.245Z,993.18
2022-09-11T00:22:18.225Z,993.20
2022-09-11T00:23:18.226Z,993.17
2022-09-11T00:24:18.191Z,993.18
2022-09-11T00:25:18.199Z,993.19
2022-09-11T00:26:18.160Z,993.17
2022-09-11T00:27:18.152Z,993.20
2022-09-11T00:28:18.133Z,993.23
2022-09-11T00:29:18.139Z,993.19
2022-09-11T00:30:18.105Z,993.15
2022-09-11T00:31:18.110Z,993.17
2022-09-11T00:32:18.071Z,993.19
2022-09-11T00:33:18.056Z,993.24
2022-09-11T00:34:18.040Z,993.18
2022-09-11T00:35:18.025Z,993.16
2022-09-11T00:36:18.014Z,993.19
2022-09-11T00:37:17.995Z,993.17
2022-09-11T00:38:17.984Z,993.17
2022-09-11T00:39:17.968Z,993.21
2022-09-11T00:40:17.953Z,993.22
2022-09-11T00:41:17.936Z,993.23
2022-09-11T00:42:17.922Z,993.19
2022-09-11T00:43:17.909Z,993.22
2022-09-11T00:44:17.902Z,993.24
2022-09-11T00:45:17.883Z,993.23
2022-09-11T00:46:17.864Z,993.24
2022-09-11T00:47:17.847Z,993.28
2022-09-11T00:48:17.832Z,993.24
2022-09-11T00:49:17.816Z,993.25
2022-09-11T00:50:19.482Z,993.27
2022-09-11T00:51:17.785Z,993.26
2022-09-11T00:52:17.788Z,993.34
2022-09-11T00:53:17.759Z,993.29
2022-09-11T00:54:17.746Z,993.27
2022-09-11T00:55:17.729Z,993.30
2022-09-11T00:56:17.715Z,993.29
2022-09-11T00:57:17.700Z,993.30
2022-09-11T00:58:17.684Z,993.32
2022-09-11T00:59:17.675Z,993.36
2022-09-11T01:00:17.655Z,993.31
2022-09-11T01:01:17.727Z,993.34
2022-09-11T01:02:17.624Z,993.34
2022-09-11T01:03:17.610Z,993.38
2022-09-11T01:04:17.600Z,993.37
2022-09-11T01:05:17.581Z,993.36
2022-09-11T01:06:17.568Z,993.38
2022-09-11T01:07:17.549Z,993.33
2022-09-11T01:08:17.536Z,993.37
2022-09-11T01:09:17.522Z,993.37
2022-09-11T01:10:17.505Z,993.38
2022-09-11T01:11:17.493Z,993.41
2022-09-11T01:12:17.501Z,993.42
2022-09-11T01:13:17.465Z,993.42
2022-09-11T01:14:17.446Z,993.39
2022-09-11T01:15:17.432Z,993.45
2022-09-11T01:16:17.468Z,993.44
2022-09-11T01:17:17.402Z,993.47
2022-09-11T01:18:17.387Z,993.46
2022-09-11T01:19:17.372Z,993.51
2022-09-11T01:20:17.359Z,993.48
2022-09-11T01:21:17.343Z,993.49
2022-09-11T01:22:17.328Z,993.52
2022-09-11T01:23:17.319Z,993.49
2022-09-11T01:24:17.301Z,993.54
2022-09-11T01:25:17.283Z,993.52
2022-09-11T01:26:17.270Z,993.54
2022-09-11T01:27:17.257Z,993.51
2022-09-11T01:28:17.241Z,993.55
2022-09-11T01:29:17.223Z,993.57
2022-09-11T01:30:17.217Z,993.56
2022-09-11T01:31:17.239Z,993.56
2022-09-11T01:32:17.186Z,993.58
2022-09-11T01:33:17.167Z,993.58
2022-09-11T01:34:17.156Z,993.62
2022-09-11T01:35:17.137Z,993.61
2022-09-11T01:36:17.123Z,993.62
2022-09-11T01:37:17.114Z,993.61
2022-09-11T01:38:17.096Z,993.65
2022-09-11T01:39:17.083Z,993.67
2022-09-11T01:40:17.062Z,993.68
2022-09-11T01:41:17.053Z,993.68
2022-09-11T01:42:17.032Z,993.67
2022-09-11T01:43:17.025Z,993.70
2022-09-11T01:44:17.005Z,993.71
2022-09-11T01:45:16.990Z,993.72
2022-09-11T01:46:16.976Z,993.74
2022-09-11T01:47:16.963Z,993.78
2022-09-11T01:48:16.943Z,993.74
2022-09-11T01:49:16.930Z,993.74
2022-09-11T01:50:16.915Z,993.73
2022-09-11T01:51:16.898Z,993.72
2022-09-11T01:52:16.887Z,993.79
2022-09-11T01:53:16.869Z,993.79
2022-09-11T01:54:16.857Z,993.79
2022-09-11T01:55:16.840Z,993.75
2022-09-11T01:56:16.825Z,993.76
2022-09-11T01:57:16.812Z,993.75
2022-09-11T01:58:16.798Z,993.77
2022-09-11T01:59:16.781Z,993.79
2022-09-11T02:00:16.768Z,993.77
2022-09-11T02:01:16.752Z,993.78
2022-09-11T02:02:16.814Z,993.79
2022-09-11T02:03:16.730Z,993.80
2022-09-11T02:04:16.711Z,993.82
2022-09-11T02:05:16.693Z,993.83
2022-09-11T02:06:16.680Z,993.83
2022-09-11T02:07:16.667Z,993.81
2022-09-11T02:08:16.650Z,993.89
2022-09-11T02:09:16.634Z,993.81
2022-09-11T02:10:16.626Z,993.86
2022-09-11T02:11:16.605Z,993.83
2022-09-11T02:12:16.594Z,993.84
2022-09-11T02:13:16.600Z,993.85
2022-09-11T02:14:16.565Z,993.85
2022-09-11T02:15:16.549Z,993.84
2022-09-11T02:16:16.596Z,993.85
2022-09-11T02:17:16.524Z,993.80
2022-09-11T02:18:16.505Z,993.79
2022-09-11T02:19:16.488Z,993.77
2022-09-11T02:20:16.474Z,993.75
2022-09-11T02:21:16.461Z,993.69
2022-09-11T02:22:16.442Z,993.74
2022-09-11T02:23:16.431Z,993.71
2022-09-11T02:24:16.426Z,993.68
2022-09-11T02:25:16.400Z,993.72
2022-09-11T02:26:16.384Z,993.74
2022-09-11T02:27:16.371Z,993.77
2022-09-11T02:28:16.355Z,993.78
2022-09-11T02:29:16.343Z,993.78
2022-09-11T02:30:16.332Z,993.77
2022-09-11T02:31:16.341Z,993.79
2022-09-11T02:32:23.511Z,993.81
2022-09-11T02:34:20.753Z,993.82
2022-09-11T02:35:20.723Z,993.82
2022-09-11T02:37:25.174Z,993.84
2022-09-11T02:38:25.145Z,993.86
2022-09-11T02:40:29.590Z,993.86
2022-09-11T02:41:29.563Z,993.89
2022-09-11T02:43:22.934Z,993.92
2022-09-11T02:44:22.909Z,993.92
2022-09-11T02:46:27.379Z,993.94
2022-09-11T02:47:27.349Z,993.97
2022-09-11T02:49:31.787Z,993.99
2022-09-11T02:50:31.770Z,994.00
2022-09-11T02:52:36.220Z,994.06
2022-09-11T02:53:36.185Z,994.07
2022-09-11T02:55:40.638Z,994.10
2022-09-11T02:56:40.606Z,994.11
2022-09-11T02:58:45.062Z,994.12
2022-09-11T02:59:45.061Z,994.12
2022-09-11T03:01:49.540Z,994.17
2022-09-11T03:02:49.443Z,994.17
2022-09-11T03:04:53.903Z,994.20
2022-09-11T03:05:53.866Z,994.19
2022-09-11T03:07:58.315Z,994.23
2022-09-11T03:08:58.297Z,994.25
2022-09-11T03:11:02.749Z,994.29
2022-09-11T03:12:02.713Z,994.29
2022-09-11T03:13:56.089Z,994.29
2022-09-11T03:14:56.066Z,994.32
2022-09-11T03:17:00.515Z,994.32
2022-09-11T03:18:00.489Z,994.35
2022-09-11T03:20:04.937Z,994.37
2022-09-11T03:21:04.902Z,994.40
2022-09-11T03:23:09.342Z,994.37
2022-09-11T03:24:09.319Z,994.40
2022-09-11T03:26:13.769Z,994.42
2022-09-11T03:27:13.741Z,994.39
2022-09-11T03:29:18.178Z,994.41
2022-09-11T03:30:18.156Z,994.39
2022-09-11T03:32:22.613Z,994.41
2022-09-11T03:33:22.573Z,994.43
2022-09-11T03:35:27.028Z,994.43
2022-09-11T03:36:26.994Z,994.44
2022-09-11T03:38:31.449Z,994.45
2022-09-11T03:39:31.430Z,994.44
2022-09-11T03:41:35.882Z,994.46
2022-09-11T03:42:35.845Z,994.46
2022-09-11T03:43:35.836Z,994.49
2022-09-11T03:44:35.821Z,994.49
2022-09-11T03:45:35.852Z,994.53
2022-09-11T03:46:35.788Z,994.57
2022-09-11T03:47:35.772Z,994.54
2022-09-11T03:48:35.762Z,994.53
2022-09-11T03:49:35.743Z,994.54
2022-09-11T03:50:35.728Z,994.58
2022-09-11T03:51:35.715Z,994.55
2022-09-11T03:52:35.701Z,994.56
2022-09-11T03:53:35.686Z,994.60
2022-09-11T03:54:35.671Z,994.58
2022-09-11T03:55:35.653Z,994.62
2022-09-11T03:56:35.641Z,994.62
2022-09-11T03:57:35.624Z,994.64
2022-09-11T03:58:35.613Z,994.66
2022-09-11T03:59:35.594Z,994.65
2022-09-11T04:00:35.582Z,994.67
2022-09-11T04:01:35.572Z,994.71
2022-09-11T04:02:35.556Z,994.73
2022-09-11T04:03:35.539Z,994.73
2022-09-11T04:04:35.522Z,994.75
2022-09-11T04:05:35.509Z,994.73
2022-09-11T04:06:35.493Z,994.76
2022-09-11T04:07:35.479Z,994.78
2022-09-11T04:08:35.465Z,994.76
2022-09-11T04:09:35.448Z,994.76
2022-09-11T04:10:35.441Z,994.79
2022-09-11T04:11:37.450Z,994.76
2022-09-11T04:12:35.408Z,994.76
2022-09-11T04:13:35.392Z,994.80
2022-09-11T04:14:35.377Z,994.81
2022-09-11T04:15:35.370Z,994.82
2022-09-11T04:16:35.388Z,994.79
2022-09-11T04:17:35.335Z,994.79
2022-09-11T04:18:35.322Z,994.79
2022-09-11T04:19:35.302Z,994.84
2022-09-11T04:20:35.291Z,994.80
2022-09-11T04:21:35.273Z,994.78
2022-09-11T04:22:35.257Z,994.81
2022-09-11T04:23:35.245Z,994.82
2022-09-11T04:24:35.228Z,994.81
2022-09-11T04:25:35.212Z,994.86
2022-09-11T04:26:35.203Z,994.86
2022-09-11T04:27:35.184Z,994.87
2022-09-11T04:28:35.170Z,994.83
2022-09-11T04:29:35.156Z,994.87
2022-09-11T04:30:35.140Z,994.89
2022-09-11T04:31:35.164Z,994.86
2022-09-11T04:32:35.124Z,994.88
2022-09-11T04:33:35.097Z,994.88
2022-09-11T04:34:35.081Z,994.90
2022-09-11T04:35:35.066Z,994.91
2022-09-11T04:36:35.052Z,994.91
2022-09-11T04:37:35.037Z,994.92
2022-09-11T04:38:35.023Z,994.89
2022-09-11T04:39:35.047Z,994.93
2022-09-11T04:40:34.994Z,994.91
2022-09-11T04:41:34.977Z,994.95
2022-09-11T04:42:34.963Z,995.01
2022-09-11T04:43:34.954Z,994.95
2022-09-11T04:44:34.941Z,994.97
2022-09-11T04:45:34.941Z,994.97
2022-09-11T04:46:34.905Z,994.96
2022-09-11T04:47:34.890Z,995.01
2022-09-11T04:48:34.877Z,995.00
2022-09-11T04:49:34.860Z,995.01
2022-09-11T04:50:34.847Z,994.99
2022-09-11T04:51:34.869Z,995.00
2022-09-11T04:52:34.818Z,995.02
2022-09-11T04:53:34.806Z,995.01
2022-09-11T04:54:34.790Z,995.01
2022-09-11T04:55:34.771Z,995.04
2022-09-11T04:56:34.758Z,995.01
2022-09-11T04:57:34.748Z,995.04
2022-09-11T04:58:34.742Z,995.02
2022-09-11T04:59:34.714Z,995.03
2022-09-11T05:00:34.699Z,995.05
2022-09-11T05:01:34.685Z,995.06
2022-09-11T05:02:34.671Z,995.08
2022-09-11T05:03:34.657Z,995.07
2022-09-11T05:04:34.640Z,995.09
2022-09-11T05:05:34.627Z,995.08
2022-09-11T05:06:34.611Z,995.12
2022-09-11T05:07:34.596Z,995.08
2022-09-11T05:08:34.583Z,995.10
2022-09-11T05:09:34.565Z,995.12
2022-09-11T05:10:34.554Z,995.09
2022-09-11T05:11:34.538Z,995.08
2022-09-11T05:12:34.524Z,995.15
2022-09-11T05:13:36.557Z,995.14
2022-09-11T05:14:34.494Z,995.18
2022-09-11T05:15:34.478Z,995.24
2022-09-11T05:16:34.630Z,995.21
2022-09-11T05:17:34.449Z,995.21
2022-09-11T05:18:34.435Z,995.22
2022-09-11T05:19:34.419Z,995.24
2022-09-11T05:20:34.406Z,995.24
2022-09-11T05:21:34.397Z,995.25
2022-09-11T05:22:34.378Z,995.28
2022-09-11T05:23:34.362Z,995.31
2022-09-11T05:24:34.348Z,995.29
2022-09-11T05:25:34.334Z,995.29
2022-09-11T05:26:34.323Z,995.31
2022-09-11T05:27:34.302Z,995.34
2022-09-11T05:28:34.291Z,995.38
2022-09-11T05:29:34.272Z,995.35
2022-09-11T05:30:34.259Z,995.40
2022-09-11T05:31:34.294Z,995.41
2022-09-11T05:32:34.232Z,995.41
2022-09-11T05:33:34.257Z,995.42
2022-09-11T05:34:34.201Z,995.41
2022-09-11T05:35:34.187Z,995.44
2022-09-11T05:36:34.172Z,995.43
2022-09-11T05:37:34.154Z,995.44
2022-09-11T05:38:34.140Z,995.43
2022-09-11T05:39:34.124Z,995.45
2022-09-11T05:40:34.111Z,995.48
2022-09-11T05:41:34.095Z,995.45
2022-09-11T05:42:34.153Z,995.49
2022-09-11T05:43:34.080Z,995.51
2022-09-11T05:44:34.052Z,995.49
2022-09-11T05:45:34.083Z,995.49
2022-09-11T05:46:34.028Z,995.48
2022-09-11T05:47:34.010Z,995.50
2022-09-11T05:48:33.993Z,995.53
2022-09-11T05:49:33.979Z,995.57
2022-09-11T05:50:33.965Z,995.56
2022-09-11T05:51:33.954Z,995.58
2022-09-11T05:52:33.937Z,995.57
2022-09-11T05:53:33.920Z,995.58
2022-09-11T05:54:33.906Z,995.59
2022-09-11T05:55:33.890Z,995.61
2022-09-11T05:56:33.876Z,995.65
2022-09-11T05:57:33.862Z,995.66
2022-09-11T05:58:33.846Z,995.67
2022-09-11T05:59:33.831Z,995.67
2022-09-11T06:00:33.820Z,995.68
2022-09-11T06:01:33.852Z,995.73
2022-09-11T06:02:33.790Z,995.74
2022-09-11T06:03:33.849Z,995.73
2022-09-11T06:04:33.763Z,995.74
2022-09-11T06:05:33.743Z,995.77
2022-09-11T06:06:33.728Z,995.78
2022-09-11T06:07:33.715Z,995.78
2022-09-11T06:08:33.702Z,995.70
2022-09-11T06:09:33.685Z,995.73
2022-09-11T06:10:33.673Z,995.77
2022-09-11T06:11:33.658Z,995.74
2022-09-11T06:12:33.643Z,995.77
2022-09-11T06:13:33.711Z,995.78
2022-09-11T06:14:33.612Z,995.75
2022-09-11T06:15:46.286Z,995.79
2022-09-11T06:16:33.618Z,995.80
2022-09-11T06:17:33.569Z,995.84
2022-09-11T06:18:33.555Z,995.84
2022-09-11T06:19:33.537Z,995.86
2022-09-11T06:20:33.524Z,995.89
2022-09-11T06:21:33.516Z,995.89
2022-09-11T06:22:33.499Z,995.87
2022-09-11T06:23:33.521Z,995.90
2022-09-11T06:24:33.467Z,995.91
2022-09-11T06:25:33.456Z,995.91
2022-09-11T06:26:33.438Z,995.92
2022-09-11T06:27:33.426Z,995.89
2022-09-11T06:28:33.409Z,995.90
2022-09-11T06:29:33.397Z,995.90
2022-09-11T06:30:33.413Z,995.92
2022-09-11T06:31:33.370Z,995.92
2022-09-11T06:32:33.352Z,995.94
2022-09-11T06:33:33.357Z,995.95
2022-09-11T06:34:33.322Z,995.97
2022-09-11T06:35:33.310Z,995.95
2022-09-11T06:36:33.294Z,995.96
2022-09-11T06:37:33.280Z,995.97
2022-09-11T06:38:33.267Z,995.98
2022-09-11T06:39:33.266Z,995.98
2022-09-11T06:40:33.241Z,996.00
2022-09-11T06:41:33.224Z,996.03
2022-09-11T06:42:33.209Z,996.06
2022-09-11T06:43:33.322Z,996.07
2022-09-11T06:44:33.189Z,996.08
2022-09-11T06:45:33.190Z,996.06
2022-09-11T06:46:33.154Z,996.07
2022-09-11T06:47:33.139Z,996.10
2022-09-11T06:48:33.124Z,996.09
2022-09-11T06:49:33.112Z,996.08
2022-09-11T06:50:36.841Z,996.14
2022-09-11T06:51:33.088Z,996.14
2022-09-11T06:52:33.071Z,996.13
2022-09-11T06:53:33.130Z,996.13
2022-09-11T06:54:33.043Z,996.13
2022-09-11T06:55:33.038Z,996.15
2022-09-11T06:56:33.020Z,996.13
2022-09-11T06:57:33.007Z,996.13
2022-09-11T06:58:32.986Z,996.12
2022-09-11T06:59:32.969Z,996.18
2022-09-11T07:00:32.960Z,996.11
2022-09-11T07:01:33.000Z,996.10
2022-09-11T07:02:32.929Z,996.10
2022-09-11T07:03:32.977Z,996.12
2022-09-11T07:04:32.905Z,996.10
2022-09-11T07:05:32.889Z,996.12
2022-09-11T07:06:32.878Z,996.07
2022-09-11T07:07:32.861Z,996.10
2022-09-11T07:08:32.847Z,996.09
2022-09-11T07:09:32.835Z,996.07
2022-09-11T07:10:32.819Z,996.10
2022-09-11T07:11:32.807Z,996.13
2022-09-11T07:12:32.793Z,996.17
2022-09-11T07:13:37.158Z,996.17
2022-09-11T07:14:32.772Z,996.20
2022-09-11T07:15:32.752Z,996.15
2022-09-11T07:16:32.768Z,996.16
2022-09-11T07:17:32.727Z,996.15
2022-09-11T07:18:32.717Z,996.12
2022-09-11T07:19:32.697Z,996.10
2022-09-11T07:20:32.687Z,996.09
2022-09-11T07:21:32.671Z,996.18
2022-09-11T07:22:32.660Z,996.17
2022-09-11T07:23:32.645Z,996.16
2022-09-11T07:24:32.631Z,996.20
2022-09-11T07:25:32.618Z,996.18
2022-09-11T07:26:32.605Z,996.17
2022-09-11T07:27:32.591Z,996.23
2022-09-11T07:28:32.582Z,996.28
2022-09-11T07:29:32.567Z,996.27
2022-09-11T07:30:32.653Z,996.21
2022-09-11T07:31:32.541Z,996.25
2022-09-11T07:32:32.527Z,996.25
2022-09-11T07:33:32.515Z,996.25
2022-09-11T07:34:32.498Z,996.22
2022-09-11T07:35:32.485Z,996.26
2022-09-11T07:36:32.473Z,996.28
2022-09-11T07:37:32.461Z,996.30
2022-09-11T07:38:32.449Z,996.28
2022-09-11T07:39:32.442Z,996.32
2022-09-11T07:40:32.420Z,996.29
2022-09-11T07:41:32.408Z,996.37
2022-09-11T07:42:32.394Z,996.31
2022-09-11T07:43:32.385Z,996.38
2022-09-11T07:44:32.372Z,996.35
2022-09-11T07:45:32.449Z,996.37
2022-09-11T07:46:32.342Z,996.40
2022-09-11T07:47:32.330Z,996.41
2022-09-11T07:48:32.319Z,996.39
2022-09-11T07:49:32.306Z,996.44
2022-09-11T07:50:32.292Z,996.42
2022-09-11T07:51:32.280Z,996.49
2022-09-11T07:52:32.268Z,996.51
2022-09-11T07:53:32.261Z,996.55
2022-09-11T07:54:32.243Z,996.52
2022-09-11T07:55:32.232Z,996.52
2022-09-11T07:56:32.220Z,996.52
2022-09-11T07:57:32.204Z,996.54
2022-09-11T07:58:32.190Z,996.55
2022-09-11T07:59:32.180Z,996.58
2022-09-11T08:00:36.540Z,996.51
2022-09-11T08:01:32.204Z,996.53
2022-09-11T08:02:32.178Z,996.54
2022-09-11T08:03:32.129Z,996.54
2022-09-11T08:04:32.119Z,996.60
2022-09-11T08:05:32.103Z,996.57
2022-09-11T08:06:32.094Z,996.57
2022-09-11T08:07:32.079Z,996.56
2022-09-11T08:08:32.072Z,996.61
2022-09-11T08:09:32.058Z,996.58
2022-09-11T08:10:32.041Z,996.58
2022-09-11T08:11:32.031Z,996.59
2022-09-11T08:12:32.019Z,996.60
2022-09-11T08:13:32.008Z,996.60
2022-09-11T08:14:31.999Z,996.58
2022-09-11T08:15:31.980Z,996.61
2022-09-11T08:16:32.048Z,996.60
2022-09-11T08:17:31.968Z,996.60
2022-09-11T08:18:31.948Z,996.61
2022-09-11T08:19:31.933Z,996.61
2022-09-11T08:20:31.919Z,996.63
2022-09-11T08:21:31.915Z,996.61
2022-09-11T08:22:31.901Z,996.62
2022-09-11T08:23:31.883Z,996.64
2022-09-11T08:24:31.871Z,996.64
2022-09-11T08:25:31.862Z,996.60
2022-09-11T08:26:31.846Z,996.64
2022-09-11T08:27:31.846Z,996.64
2022-09-11T08:28:31.818Z,996.67
2022-09-11T08:29:31.806Z,996.67
2022-09-11T08:30:31.798Z,996.66
2022-09-11T08:31:31.811Z,996.67
2022-09-11T08:32:31.783Z,996.68
2022-09-11T08:33:40.463Z,996.66
2022-09-11T08:35:36.215Z,996.68
2022-09-11T08:36:36.184Z,996.68
2022-09-11T08:38:40.641Z,996.74
2022-09-11T08:39:40.641Z,996.72
2022-09-11T08:41:46.077Z,996.73
2022-09-11T08:42:46.042Z,996.76
2022-09-11T08:44:39.428Z,996.79
2022-09-11T08:45:39.444Z,996.74
2022-09-11T08:47:45.074Z,996.79
2022-09-11T08:48:44.862Z,996.76
2022-09-11T08:50:49.298Z,996.82
2022-09-11T08:51:49.270Z,996.82
2022-09-11T08:53:53.734Z,996.85
2022-09-11T08:54:53.793Z,996.87
2022-09-11T08:56:58.144Z,996.88
2022-09-11T08:57:58.118Z,996.89
2022-09-11T09:00:02.596Z,996.96
2022-09-11T09:01:02.618Z,996.91
2022-09-11T09:03:08.026Z,996.98
2022-09-11T09:04:07.998Z,997.00
2022-09-11T09:06:13.452Z,996.99
2022-09-11T09:07:13.432Z,997.00
2022-09-11T09:09:17.895Z,997.04
2022-09-11T09:10:17.900Z,997.01
2022-09-11T09:12:22.313Z,996.99
2022-09-11T09:13:22.294Z,997.01
2022-09-11T09:15:16.108Z,996.99
2022-09-11T09:16:16.116Z,996.98
2022-09-11T09:18:20.581Z,996.92
2022-09-11T09:19:20.555Z,996.91
2022-09-11T09:21:25.007Z,996.95
2022-09-11T09:22:24.990Z,996.98
2022-09-11T09:24:18.423Z,996.99
2022-09-11T09:25:18.385Z,996.94
2022-09-11T09:27:22.855Z,997.01
2022-09-11T09:28:22.973Z,996.98
2022-09-11T09:30:27.303Z,997.00
2022-09-11T09:31:27.307Z,996.99
2022-09-11T09:33:31.725Z,996.94
2022-09-11T09:34:31.697Z,996.96
2022-09-11T09:36:36.150Z,997.05
2022-09-11T09:37:36.140Z,996.97
2022-09-11T09:39:40.674Z,997.02
2022-09-11T09:40:40.555Z,997.04
2022-09-11T09:41:40.545Z,997.00
2022-09-11T09:42:40.681Z,996.98
2022-09-11T09:43:40.525Z,996.99
2022-09-11T09:44:40.511Z,996.99
2022-09-11T09:45:40.532Z,997.02
2022-09-11T09:46:40.490Z,996.99
2022-09-11T09:47:40.484Z,996.99
2022-09-11T09:48:40.594Z,996.98
2022-09-11T09:49:40.457Z,997.03
2022-09-11T09:50:40.447Z,997.01
2022-09-11T09:51:40.438Z,997.02
2022-09-11T09:52:40.435Z,997.02
2022-09-11T09:53:40.417Z,997.01
2022-09-11T09:54:40.406Z,997.01
2022-09-11T09:55:40.399Z,997.01
2022-09-11T09:56:40.385Z,996.98
2022-09-11T09:57:40.377Z,996.96
2022-09-11T09:58:40.514Z,996.96
2022-09-11T09:59:40.358Z,996.94
2022-09-11T10:00:40.345Z,996.93
2022-09-11T10:01:40.574Z,996.96
2022-09-11T10:02:40.393Z,996.98
2022-09-11T10:03:40.324Z,996.99
2022-09-11T10:04:40.307Z,997.03
2022-09-11T10:05:40.300Z,997.01
2022-09-11T10:06:40.289Z,997.10
2022-09-11T10:07:40.282Z,997.10
2022-09-11T10:08:40.275Z,997.04
2022-09-11T10:09:40.261Z,997.06
2022-09-11T10:10:40.256Z,997.11
2022-09-11T10:11:40.246Z,997.09
2022-09-11T10:12:40.239Z,997.11
2022-09-11T10:13:40.230Z,997.07
2022-09-11T10:14:51.392Z,997.12
2022-09-11T10:15:40.255Z,997.05
2022-09-11T10:16:40.213Z,997.05
2022-09-11T10:17:40.201Z,997.02
2022-09-11T10:18:40.214Z,997.01
2022-09-11T10:19:40.185Z,996.96
2022-09-11T10:20:40.259Z,996.98
2022-09-11T10:21:40.174Z,996.95
2022-09-11T10:22:40.167Z,997.01
2022-09-11T10:23:40.182Z,996.96
2022-09-11T10:24:40.155Z,996.97
2022-09-11T10:25:40.145Z,997.00
2022-09-11T10:26:40.144Z,997.01
2022-09-11T10:27:40.131Z,997.00
2022-09-11T10:28:40.147Z,996.96
2022-09-11T10:29:40.119Z,996.95
2022-09-11T10:30:40.131Z,996.93
2022-09-11T10:31:40.128Z,996.96
2022-09-11T10:32:40.093Z,996.93
2022-09-11T10:33:40.090Z,996.94
2022-09-11T10:34:40.077Z,996.91
2022-09-11T10:35:40.069Z,996.88
2022-09-11T10:36:40.065Z,996.86
2022-09-11T10:37:40.055Z,996.87
2022-09-11T10:38:41.557Z,996.90
2022-09-11T10:39:40.110Z,996.89
2022-09-11T10:40:40.044Z,996.86
2022-09-11T10:41:40.024Z,996.87
2022-09-11T10:42:40.017Z,996.88
2022-09-11T10:43:40.010Z,996.86
2022-09-11T10:44:40.005Z,996.89
2022-09-11T10:45:40.020Z,996.89
2022-09-11T10:46:40.152Z,996.87
2022-09-11T10:47:39.994Z,996.87
2022-09-11T10:48:39.975Z,996.88
2022-09-11T10:49:39.969Z,996.83
2022-09-11T10:50:39.981Z,996.85
2022-09-11T10:51:43.138Z,996.82
2022-09-11T10:52:39.950Z,996.82
2022-09-11T10:53:39.962Z,996.83
2022-09-11T10:54:39.934Z,996.83
2022-09-11T10:55:39.929Z,996.84
2022-09-11T10:56:39.922Z,996.84
2022-09-11T10:57:39.911Z,996.85
2022-09-11T10:58:39.933Z,996.80
2022-09-11T10:59:39.895Z,996.88
2022-09-11T11:00:39.892Z,996.88
2022-09-11T11:01:40.159Z,996.88
2022-09-11T11:02:39.878Z,996.89
2022-09-11T11:03:39.870Z,996.89
2022-09-11T11:04:39.856Z,996.84
2022-09-11T11:05:39.873Z,996.87
2022-09-11T11:06:39.837Z,996.86
2022-09-11T11:07:39.830Z,996.86
2022-09-11T11:08:39.836Z,996.88
2022-09-11T11:09:39.813Z,996.90
2022-09-11T11:10:39.802Z,996.96
2022-09-11T11:11:39.796Z,996.94
2022-09-11T11:12:39.783Z,996.91
2022-09-11T11:13:39.773Z,996.92
2022-09-11T11:14:39.767Z,996.91
2022-09-11T11:15:39.783Z,996.86
2022-09-11T11:16:39.745Z,996.90
2022-09-11T11:17:39.752Z,996.86
2022-09-11T11:18:39.761Z,996.90
2022-09-11T11:19:39.716Z,996.89
2022-09-11T11:20:39.706Z,996.92
2022-09-11T11:21:39.695Z,996.93
2022-09-11T11:22:39.684Z,996.93
2022-09-11T11:23:39.685Z,996.88
2022-09-11T11:24:39.701Z,996.90
2022-09-11T11:25:39.657Z,996.93
2022-09-11T11:26:39.649Z,996.92
2022-09-11T11:27:39.635Z,996.96
2022-09-11T11:28:39.681Z,996.92
2022-09-11T11:29:39.668Z,996.88
2022-09-11T11:30:39.602Z,996.86
2022-09-11T11:31:43.760Z,996.88
2022-09-11T11:32:39.595Z,996.88
2022-09-11T11:33:39.570Z,996.87
2022-09-11T11:34:39.557Z,996.85
2022-09-11T11:35:39.568Z,996.86
2022-09-11T11:36:39.542Z,996.87
2022-09-11T11:37:39.527Z,996.85
2022-09-11T11:38:39.566Z,996.82
2022-09-11T11:39:39.539Z,996.83
2022-09-11T11:40:39.494Z,996.84
2022-09-11T11:41:39.497Z,996.83
2022-09-11T11:42:39.474Z,996.90
2022-09-11T11:43:39.464Z,996.94
2022-09-11T11:44:39.458Z,996.90
2022-09-11T11:45:39.474Z,996.91
2022-09-11T11:46:39.444Z,996.88
2022-09-11T11:47:39.423Z,996.90
2022-09-11T11:48:39.430Z,996.92
2022-09-11T11:49:39.408Z,996.97
2022-09-11T11:50:39.415Z,996.99
2022-09-11T11:51:39.387Z,996.93
2022-09-11T11:52:39.376Z,996.93
2022-09-11T11:53:39.382Z,996.97
2022-09-11T11:54:39.360Z,996.95
2022-09-11T11:55:39.350Z,996.93
2022-09-11T11:56:39.346Z,996.93
2022-09-11T11:57:39.334Z,996.90
2022-09-11T11:58:39.366Z,996.93
2022-09-11T11:59:39.316Z,996.93
2022-09-11T12:00:39.309Z,996.83
2022-09-11T12:01:39.357Z,996.85
2022-09-11T12:02:39.291Z,996.88
2022-09-11T12:03:39.473Z,996.88
2022-09-11T12:04:39.274Z,996.96
2022-09-11T12:05:39.269Z,996.95
2022-09-11T12:06:39.261Z,996.97
2022-09-11T12:07:39.256Z,997.02
2022-09-11T12:08:39.247Z,997.05
2022-09-11T12:09:39.236Z,997.04
2022-09-11T12:10:39.233Z,997.08
2022-09-11T12:11:39.221Z,997.06
2022-09-11T12:12:39.216Z,997.06
2022-09-11T12:13:39.203Z,997.08
2022-09-11T12:14:39.206Z,997.07
2022-09-11T12:15:39.184Z,997.08
2022-09-11T12:16:39.225Z,997.07
2022-09-11T12:17:39.189Z,997.06
2022-09-11T12:18:39.163Z,997.04
2022-09-11T12:19:39.152Z,997.05
2022-09-11T12:20:39.152Z,997.06
2022-09-11T12:21:39.133Z,997.04
2022-09-11T12:22:39.120Z,997.04
2022-09-11T12:23:39.121Z,997.04
2022-09-11T12:24:39.107Z,997.06
2022-09-11T12:25:39.095Z,997.07
2022-09-11T12:26:39.082Z,997.09
2022-09-11T12:27:39.077Z,997.05
2022-09-11T12:28:39.063Z,997.05
2022-09-11T12:29:39.075Z,997.08
2022-09-11T12:30:39.045Z,997.10
2022-09-11T12:31:39.054Z,997.11
2022-09-11T12:32:39.028Z,997.16
2022-09-11T12:33:39.019Z,997.12
2022-09-11T12:34:39.016Z,997.18
2022-09-11T12:35:39.006Z,997.13
2022-09-11T12:36:38.985Z,997.16
2022-09-11T12:37:39.001Z,997.15
2022-09-11T12:38:38.966Z,997.13
2022-09-11T12:39:39.042Z,997.14
2022-09-11T12:40:38.945Z,997.13
2022-09-11T12:41:38.942Z,997.11
2022-09-11T12:42:38.927Z,997.13
2022-09-11T12:43:38.914Z,997.11
2022-09-11T12:44:38.905Z,997.09
2022-09-11T12:45:39.018Z,997.10
2022-09-11T12:46:38.894Z,997.12
2022-09-11T12:47:38.880Z,997.11
2022-09-11T12:48:38.910Z,997.11
2022-09-11T12:49:38.847Z,997.12
2022-09-11T12:50:38.849Z,997.11
2022-09-11T12:51:38.845Z,997.16
2022-09-11T12:52:38.810Z,997.16
2022-09-11T12:53:38.796Z,997.17
2022-09-11T12:54:38.787Z,997.17
2022-09-11T12:55:38.774Z,997.18
2022-09-11T12:56:38.765Z,997.16
2022-09-11T12:57:38.752Z,997.13
2022-09-11T12:58:38.740Z,997.12
2022-09-11T12:59:38.730Z,997.09
2022-09-11T13:00:38.719Z,997.07
2022-09-11T13:01:38.846Z,997.07
2022-09-11T13:02:38.695Z,997.08
2022-09-11T13:03:38.737Z,997.05
2022-09-11T13:04:38.674Z,997.05
2022-09-11T13:05:38.664Z,997.01
2022-09-11T13:06:38.655Z,997.01
2022-09-11T13:07:38.638Z,997.02
2022-09-11T13:08:38.625Z,997.01
2022-09-11T13:09:38.614Z,997.05
2022-09-11T13:10:38.602Z,996.97
2022-09-11T13:11:38.592Z,996.98
2022-09-11T13:12:38.594Z,996.98
2022-09-11T13:13:38.565Z,996.97
2022-09-11T13:14:38.576Z,996.95
2022-09-11T13:15:38.639Z,996.91